sensor_id;sensor_type;location;lat;lon;timestamp;pressure;altitude;pressure_sealevel;temperature;humidity
32456;BME280;18912;43.270;27.942;2022-12-29T00:02:12;99272.88;;;9.26;50.34
32456;BME280;18912;43.270;27.942;2022-12-29T00:04:37;99277.59;;;9.24;50.01
32456;BME280;18912;43.270;27.942;2022-12-29T00:07:03;99270.84;;;9.12;50.20
32456;BME280;18912;43.270;27.942;2022-12-29T00:09:32;99276.41;;;9.10;50.34
32456;BME280;18912;43.270;27.942;2022-12-29T00:11:58;99272.72;;;9.03;50.78
32456;BME280;18912;43.270;27.942;2022-12-29T00:14:24;99271.03;;;9.10;50.87
32456;BME280;18912;43.270;27.942;2022-12-29T00:17:08;99274.41;;;9.12;51.87
32456;BME280;18912;43.270;27.942;2022-12-29T00:19:34;99276.06;;;9.37;51.73
32456;BME280;18912;43.270;27.942;2022-12-29T00:22:17;99261.25;;;9.17;52.34
32456;BME280;18912;43.270;27.942;2022-12-29T00:25:04;99266.91;;;9.47;51.98
32456;BME280;18912;43.270;27.942;2022-12-29T00:27:48;99268.09;;;9.44;51.36
32456;BME280;18912;43.270;27.942;2022-12-29T00:30:32;99262.88;;;9.42;51.18
32456;BME280;18912;43.270;27.942;2022-12-29T00:33:18;99264.09;;;9.32;51.10
32456;BME280;18912;43.270;27.942;2022-12-29T00:36:25;99259.19;;;9.43;50.76
32456;BME280;18912;43.270;27.942;2022-12-29T00:38:59;99265.81;;;9.25;50.91
32456;BME280;18912;43.270;27.942;2022-12-29T00:41:44;99270.97;;;9.42;50.68
32456;BME280;18912;43.270;27.942;2022-12-29T00:44:29;99264.59;;;9.35;50.53
32456;BME280;18912;43.270;27.942;2022-12-29T00:46:54;99267.47;;;9.26;51.15
32456;BME280;18912;43.270;27.942;2022-12-29T00:49:20;99272.50;;;9.29;51.35
32456;BME280;18912;43.270;27.942;2022-12-29T00:52:06;99269.63;;;9.38;51.37
32456;BME280;18912;43.270;27.942;2022-12-29T00:54:35;99264.28;;;9.22;51.92
32456;BME280;18912;43.270;27.942;2022-12-29T00:57:01;99256.88;;;9.16;52.56
32456;BME280;18912;43.270;27.942;2022-12-29T00:59:27;99255.00;;;9.25;52.24
32456;BME280;18912;43.270;27.942;2022-12-29T01:01:54;99259.38;;;9.26;52.39
32456;BME280;18912;43.270;27.942;2022-12-29T01:04:21;99242.31;;;9.33;52.22
32456;BME280;18912;43.270;27.942;2022-12-29T01:06:47;99235.59;;;9.21;53.29
32456;BME280;18912;43.270;27.942;2022-12-29T01:09:12;99236.75;;;9.43;53.30
32456;BME280;18912;43.270;27.942;2022-12-29T01:11:57;99230.25;;;8.89;55.00
32456;BME280;18912;43.270;27.942;2022-12-29T01:14:23;99231.91;;;9.06;55.55
32456;BME280;18912;43.270;27.942;2022-12-29T01:16:49;99232.28;;;8.79;56.52
32456;BME280;18912;43.270;27.942;2022-12-29T01:19:15;99233.97;;;8.96;56.91
32456;BME280;18912;43.270;27.942;2022-12-29T01:21:41;99227.19;;;9.08;56.02
32456;BME280;18912;43.270;27.942;2022-12-29T01:24:07;99218.75;;;9.19;55.66
32456;BME280;18912;43.270;27.942;2022-12-29T01:26:32;99209.63;;;9.28;54.66
32456;BME280;18912;43.270;27.942;2022-12-29T01:28:58;99209.34;;;9.15;55.10
32456;BME280;18912;43.270;27.942;2022-12-29T01:31:23;99213.59;;;9.57;53.98
32456;BME280;18912;43.270;27.942;2022-12-29T01:33:49;99202.03;;;9.71;53.38
32456;BME280;18912;43.270;27.942;2022-12-29T01:36:18;99195.00;;;9.62;53.38
32456;BME280;18912;43.270;27.942;2022-12-29T01:38:44;99188.59;;;9.63;53.81
32456;BME280;18912;43.270;27.942;2022-12-29T01:41:12;99185.69;;;9.72;53.09
32456;BME280;18912;43.270;27.942;2022-12-29T01:43:43;99185.94;;;9.55;52.77
32456;BME280;18912;43.270;27.942;2022-12-29T01:46:40;99183.16;;;9.24;53.79
32456;BME280;18912;43.270;27.942;2022-12-29T01:49:23;99177.84;;;8.84;55.33
32456;BME280;18912;43.270;27.942;2022-12-29T01:51:59;99170.28;;;8.79;54.98
32456;BME280;18912;43.270;27.942;2022-12-29T01:54:33;99165.03;;;9.02;54.82
32456;BME280;18912;43.270;27.942;2022-12-29T01:57:04;99157.78;;;8.94;56.78
32456;BME280;18912;43.270;27.942;2022-12-29T01:59:38;99163.06;;;9.34;56.31
32456;BME280;18912;43.270;27.942;2022-12-29T02:02:05;99152.91;;;9.36;56.60
32456;BME280;18912;43.270;27.942;2022-12-29T02:04:32;99153.56;;;9.47;56.33
32456;BME280;18912;43.270;27.942;2022-12-29T02:07:08;99146.13;;;9.49;55.92
32456;BME280;18912;43.270;27.942;2022-12-29T02:09:36;99145.28;;;9.48;56.21
32456;BME280;18912;43.270;27.942;2022-12-29T02:12:02;99150.59;;;9.33;56.94
32456;BME280;18912;43.270;27.942;2022-12-29T02:14:28;99146.97;;;9.49;56.79
32456;BME280;18912;43.270;27.942;2022-12-29T02:27:53;99145.91;;;10.42;57.91
32456;BME280;18912;43.270;27.942;2022-12-29T02:33:12;99151.88;;;10.75;56.77
32456;BME280;18912;43.270;27.942;2022-12-29T02:36:24;99149.13;;;10.97;55.99
32456;BME280;18912;43.270;27.942;2022-12-29T02:41:38;99136.78;;;10.43;54.93
32456;BME280;18912;43.270;27.942;2022-12-29T02:44:18;99130.94;;;10.31;53.72
32456;BME280;18912;43.270;27.942;2022-12-29T02:49:34;99132.84;;;10.00;53.99
32456;BME280;18912;43.270;27.942;2022-12-29T02:52:07;99131.09;;;10.15;54.08
32456;BME280;18912;43.270;27.942;2022-12-29T02:54:35;99129.16;;;10.24;54.05
32456;BME280;18912;43.270;27.942;2022-12-29T02:59:57;99136.44;;;10.46;53.36
32456;BME280;18912;43.270;27.942;2022-12-29T03:05:40;99123.94;;;10.22;52.09
32456;BME280;18912;43.270;27.942;2022-12-29T03:13:19;99123.63;;;9.95;51.35
32456;BME280;18912;43.270;27.942;2022-12-29T03:18:58;99131.81;;;9.79;51.07
32456;BME280;18912;43.270;27.942;2022-12-29T03:24:17;99132.28;;;9.82;52.08
32456;BME280;18912;43.270;27.942;2022-12-29T03:26:45;99127.44;;;9.78;51.81
32456;BME280;18912;43.270;27.942;2022-12-29T03:29:13;99133.94;;;9.61;51.27
32456;BME280;18912;43.270;27.942;2022-12-29T03:31:42;99135.59;;;9.62;51.30
32456;BME280;18912;43.270;27.942;2022-12-29T03:34:08;99140.69;;;9.65;51.06
32456;BME280;18912;43.270;27.942;2022-12-29T03:36:41;99148.09;;;9.63;51.17
32456;BME280;18912;43.270;27.942;2022-12-29T03:39:10;99146.41;;;9.62;51.42
32456;BME280;18912;43.270;27.942;2022-12-29T03:41:40;99161.94;;;9.60;51.61
32456;BME280;18912;43.270;27.942;2022-12-29T03:44:06;99155.53;;;9.61;51.39
32456;BME280;18912;43.270;27.942;2022-12-29T03:46:32;99148.09;;;9.63;51.29
32456;BME280;18912;43.270;27.942;2022-12-29T03:48:58;99155.53;;;9.61;50.94
32456;BME280;18912;43.270;27.942;2022-12-29T03:51:23;99157.19;;;9.62;51.16
32456;BME280;18912;43.270;27.942;2022-12-29T03:53:49;99160.00;;;9.46;52.51
32456;BME280;18912;43.270;27.942;2022-12-29T03:56:14;99163.34;;;9.48;53.04
32456;BME280;18912;43.270;27.942;2022-12-29T03:58:40;99162.13;;;9.58;52.41
32456;BME280;18912;43.270;27.942;2022-12-29T04:01:05;99165.63;;;9.67;52.34
32456;BME280;18912;43.270;27.942;2022-12-29T04:03:31;99167.31;;;9.68;52.13
32456;BME280;18912;43.270;27.942;2022-12-29T04:05:56;99167.31;;;9.68;52.17
32456;BME280;18912;43.270;27.942;2022-12-29T04:08:22;99169.34;;;9.66;51.91
32456;BME280;18912;43.270;27.942;2022-12-29T04:10:50;99167.91;;;9.47;51.67
32456;BME280;18912;43.270;27.942;2022-12-29T04:13:16;99165.59;;;9.36;51.46
32456;BME280;18912;43.270;27.942;2022-12-29T04:15:43;99174.03;;;9.33;51.25
32456;BME280;18912;43.270;27.942;2022-12-29T04:18:08;99172.19;;;9.25;51.22
32456;BME280;18912;43.270;27.942;2022-12-29T04:20:34;99177.78;;;9.16;51.81
32456;BME280;18912;43.270;27.942;2022-12-29T04:23:18;99173.72;;;9.20;52.24
32456;BME280;18912;43.270;27.942;2022-12-29T04:25:47;99168.16;;;9.21;52.23
32456;BME280;18912;43.270;27.942;2022-12-29T04:28:13;99174.22;;;9.23;52.72
32456;BME280;18912;43.270;27.942;2022-12-29T04:30:39;99171.59;;;8.99;53.95
32456;BME280;18912;43.270;27.942;2022-12-29T04:33:04;99173.41;;;9.23;54.55
32456;BME280;18912;43.270;27.942;2022-12-29T04:35:30;99171.28;;;9.41;54.31
32456;BME280;18912;43.270;27.942;2022-12-29T04:37:55;99165.34;;;9.54;53.63
32456;BME280;18912;43.270;27.942;2022-12-29T04:40:21;99158.94;;;9.55;53.52
32456;BME280;18912;43.270;27.942;2022-12-29T04:42:46;99161.19;;;9.43;52.96
32456;BME280;18912;43.270;27.942;2022-12-29T04:45:12;99170.81;;;9.37;52.52
32456;BME280;18912;43.270;27.942;2022-12-29T04:47:37;99170.81;;;9.29;52.21
32456;BME280;18912;43.270;27.942;2022-12-29T04:50:03;99173.22;;;9.24;51.87
32456;BME280;18912;43.270;27.942;2022-12-29T04:52:29;99179.00;;;9.13;51.61
32456;BME280;18912;43.270;27.942;2022-12-29T04:54:54;99181.00;;;9.11;51.77
32456;BME280;18912;43.270;27.942;2022-12-29T04:57:20;99181.00;;;9.11;52.38
32456;BME280;18912;43.270;27.942;2022-12-29T04:59:45;99167.38;;;9.05;53.46
32456;BME280;18912;43.270;27.942;2022-12-29T05:02:11;99167.16;;;9.22;53.81
32456;BME280;18912;43.270;27.942;2022-12-29T05:04:36;99176.56;;;9.34;53.43
32456;BME280;18912;43.270;27.942;2022-12-29T05:07:02;99175.16;;;9.47;53.89
32456;BME280;18912;43.270;27.942;2022-12-29T05:09:27;99171.47;;;9.48;54.96
32456;BME280;18912;43.270;27.942;2022-12-29T05:11:53;99176.75;;;9.72;55.08
32456;BME280;18912;43.270;27.942;2022-12-29T05:14:18;99171.44;;;9.78;55.80
32456;BME280;18912;43.270;27.942;2022-12-29T05:16:43;99170.94;;;9.83;57.08
32456;BME280;18912;43.270;27.942;2022-12-29T05:19:09;99171.56;;;9.54;57.87
32456;BME280;18912;43.270;27.942;2022-12-29T05:21:34;99165.97;;;9.64;57.92
32456;BME280;18912;43.270;27.942;2022-12-29T05:24:00;99166.91;;;9.79;57.44
32456;BME280;18912;43.270;27.942;2022-12-29T05:26:25;99168.75;;;10.09;56.54
32456;BME280;18912;43.270;27.942;2022-12-29T05:28:51;99162.44;;;9.94;57.45
32456;BME280;18912;43.270;27.942;2022-12-29T05:31:16;99169.78;;;10.16;57.21
32456;BME280;18912;43.270;27.942;2022-12-29T05:33:42;99162.22;;;10.49;56.70
32456;BME280;18912;43.270;27.942;2022-12-29T05:36:08;99163.88;;;10.58;56.56
32456;BME280;18912;43.270;27.942;2022-12-29T05:38:34;99170.16;;;10.73;56.24
32456;BME280;18912;43.270;27.942;2022-12-29T05:41:00;99171.69;;;10.90;56.15
32456;BME280;18912;43.270;27.942;2022-12-29T05:43:26;99175.88;;;10.92;56.56
32456;BME280;18912;43.270;27.942;2022-12-29T05:45:52;99172.38;;;11.06;56.56
32456;BME280;18912;43.270;27.942;2022-12-29T05:48:18;99170.25;;;11.16;56.62
32456;BME280;18912;43.270;27.942;2022-12-29T05:50:51;99178.09;;;11.26;56.51
32456;BME280;18912;43.270;27.942;2022-12-29T05:53:17;99181.81;;;11.54;55.91
32456;BME280;18912;43.270;27.942;2022-12-29T05:55:43;99181.06;;;11.75;55.54
32456;BME280;18912;43.270;27.942;2022-12-29T05:58:09;99177.38;;;11.97;55.47
32456;BME280;18912;43.270;27.942;2022-12-29T06:00:34;99185.94;;;12.15;55.38
32456;BME280;18912;43.270;27.942;2022-12-29T06:03:00;99175.31;;;12.35;55.04
32456;BME280;18912;43.270;27.942;2022-12-29T06:05:25;99178.44;;;12.80;54.68
32456;BME280;18912;43.270;27.942;2022-12-29T06:07:51;99178.38;;;13.50;53.38
32456;BME280;18912;43.270;27.942;2022-12-29T06:10:16;99169.41;;;13.97;51.38
32456;BME280;18912;43.270;27.942;2022-12-29T06:12:42;99183.00;;;14.70;49.61
32456;BME280;18912;43.270;27.942;2022-12-29T06:15:08;99176.50;;;15.24;48.10
32456;BME280;18912;43.270;27.942;2022-12-29T06:17:34;99179.09;;;15.89;45.97
32456;BME280;18912;43.270;27.942;2022-12-29T06:19:59;99180.16;;;16.32;44.40
32456;BME280;18912;43.270;27.942;2022-12-29T06:22:25;99172.03;;;16.63;43.58
32456;BME280;18912;43.270;27.942;2022-12-29T06:24:50;99176.88;;;17.78;41.80
32456;BME280;18912;43.270;27.942;2022-12-29T06:27:16;99180.25;;;19.40;38.21
32456;BME280;18912;43.270;27.942;2022-12-29T06:29:41;99176.66;;;19.74;36.65
32456;BME280;18912;43.270;27.942;2022-12-29T06:32:08;99177.84;;;20.86;35.75
32456;BME280;18912;43.270;27.942;2022-12-29T06:34:33;99177.78;;;21.64;33.84
32456;BME280;18912;43.270;27.942;2022-12-29T06:36:59;99187.59;;;21.38;34.30
32456;BME280;18912;43.270;27.942;2022-12-29T06:39:24;99194.50;;;21.57;33.96
32456;BME280;18912;43.270;27.942;2022-12-29T06:41:53;99187.28;;;21.89;33.85
32456;BME280;18912;43.270;27.942;2022-12-29T06:44:22;99183.34;;;22.23;32.69
32456;BME280;18912;43.270;27.942;2022-12-29T06:46:48;99181.34;;;20.65;35.02
32456;BME280;18912;43.270;27.942;2022-12-29T06:49:13;99171.88;;;20.89;35.19
32456;BME280;18912;43.270;27.942;2022-12-29T06:51:39;99166.50;;;20.37;35.25
32456;BME280;18912;43.270;27.942;2022-12-29T06:54:05;99164.81;;;19.85;36.17
32456;BME280;18912;43.270;27.942;2022-12-29T06:56:31;99165.09;;;20.35;35.96
32456;BME280;18912;43.270;27.942;2022-12-29T06:58:56;99163.59;;;21.50;34.15
32456;BME280;18912;43.270;27.942;2022-12-29T07:01:22;99165.22;;;21.84;34.10
32456;BME280;18912;43.270;27.942;2022-12-29T07:03:47;99153.97;;;21.53;34.13
32456;BME280;18912;43.270;27.942;2022-12-29T07:06:12;99166.09;;;22.11;33.85
32456;BME280;18912;43.270;27.942;2022-12-29T07:08:38;99161.59;;;22.05;33.36
32456;BME280;18912;43.270;27.942;2022-12-29T07:11:04;99168.78;;;21.68;34.41
32456;BME280;18912;43.270;27.942;2022-12-29T07:13:30;99167.88;;;23.24;32.46
32456;BME280;18912;43.270;27.942;2022-12-29T07:15:55;99171.72;;;23.55;31.79
32456;BME280;18912;43.270;27.942;2022-12-29T07:18:21;99164.38;;;22.05;33.65
32456;BME280;18912;43.270;27.942;2022-12-29T07:20:46;99168.19;;;22.69;32.89
32456;BME280;18912;43.270;27.942;2022-12-29T07:23:12;99166.00;;;20.40;36.31
32456;BME280;18912;43.270;27.942;2022-12-29T07:25:37;99158.38;;;20.87;35.62
32456;BME280;18912;43.270;27.942;2022-12-29T07:28:03;99171.22;;;18.87;38.36
32456;BME280;18912;43.270;27.942;2022-12-29T07:30:29;99162.50;;;20.17;37.06
32456;BME280;18912;43.270;27.942;2022-12-29T07:32:54;99164.94;;;19.09;38.71
32456;BME280;18912;43.270;27.942;2022-12-29T07:35:20;99169.09;;;18.47;39.59
32456;BME280;18912;43.270;27.942;2022-12-29T07:37:45;99165.31;;;18.60;39.68
32456;BME280;18912;43.270;27.942;2022-12-29T07:40:11;99161.97;;;19.80;37.77
32456;BME280;18912;43.270;27.942;2022-12-29T07:42:37;99169.84;;;19.88;37.61
32456;BME280;18912;43.270;27.942;2022-12-29T07:45:03;99171.16;;;19.86;37.95
32456;BME280;18912;43.270;27.942;2022-12-29T07:47:29;99174.25;;;21.13;35.96
32456;BME280;18912;43.270;27.942;2022-12-29T07:49:54;99174.97;;;20.48;36.46
32456;BME280;18912;43.270;27.942;2022-12-29T07:52:20;99173.19;;;20.41;37.06
32456;BME280;18912;43.270;27.942;2022-12-29T07:54:45;99174.50;;;19.76;37.46
32456;BME280;18912;43.270;27.942;2022-12-29T07:57:11;99180.63;;;20.58;36.78
32456;BME280;18912;43.270;27.942;2022-12-29T07:59:36;99173.03;;;19.97;37.20
32456;BME280;18912;43.270;27.942;2022-12-29T08:02:02;99185.03;;;19.33;38.43
32456;BME280;18912;43.270;27.942;2022-12-29T08:04:28;99175.91;;;19.09;38.64
32456;BME280;18912;43.270;27.942;2022-12-29T08:06:53;99179.38;;;19.05;38.74
32456;BME280;18912;43.270;27.942;2022-12-29T08:09:19;99179.41;;;18.75;39.14
32456;BME280;18912;43.270;27.942;2022-12-29T08:11:44;99183.16;;;20.19;37.50
32456;BME280;18912;43.270;27.942;2022-12-29T08:14:10;99181.50;;;19.03;38.72
32456;BME280;18912;43.270;27.942;2022-12-29T08:16:35;99186.34;;;19.65;37.49
32456;BME280;18912;43.270;27.942;2022-12-29T08:19:01;99188.38;;;18.52;39.29
32456;BME280;18912;43.270;27.942;2022-12-29T08:21:27;99183.09;;;18.81;38.56
32456;BME280;18912;43.270;27.942;2022-12-29T08:23:53;99187.00;;;19.95;37.60
32456;BME280;18912;43.270;27.942;2022-12-29T08:26:19;99182.88;;;19.35;38.36
32456;BME280;18912;43.270;27.942;2022-12-29T08:28:44;99181.69;;;19.66;38.16
32456;BME280;18912;43.270;27.942;2022-12-29T08:31:10;99178.72;;;19.67;37.33
32456;BME280;18912;43.270;27.942;2022-12-29T08:33:35;99180.03;;;20.56;36.73
32456;BME280;18912;43.270;27.942;2022-12-29T08:36:03;99181.09;;;19.75;37.01
32456;BME280;18912;43.270;27.942;2022-12-29T08:38:29;99183.94;;;19.80;37.53
32456;BME280;18912;43.270;27.942;2022-12-29T08:40:57;99175.59;;;19.75;36.80
32456;BME280;18912;43.270;27.942;2022-12-29T08:43:23;99173.47;;;20.28;35.92
32456;BME280;18912;43.270;27.942;2022-12-29T08:45:49;99164.84;;;20.36;35.88
32456;BME280;18912;43.270;27.942;2022-12-29T08:48:14;99152.63;;;20.89;35.66
32456;BME280;18912;43.270;27.942;2022-12-29T08:50:44;99165.59;;;19.46;36.85
32456;BME280;18912;43.270;27.942;2022-12-29T08:53:09;99154.50;;;20.55;35.55
32456;BME280;18912;43.270;27.942;2022-12-29T08:55:35;99166.91;;;20.29;36.18
32456;BME280;18912;43.270;27.942;2022-12-29T08:58:01;99159.81;;;19.94;36.83
32456;BME280;18912;43.270;27.942;2022-12-29T09:00:26;99159.97;;;20.27;35.89
32456;BME280;18912;43.270;27.942;2022-12-29T09:02:52;99153.06;;;20.53;35.56
32456;BME280;18912;43.270;27.942;2022-12-29T09:05:17;99158.28;;;20.37;36.14
32456;BME280;18912;43.270;27.942;2022-12-29T09:07:43;99158.41;;;19.68;36.70
32456;BME280;18912;43.270;27.942;2022-12-29T09:10:08;99153.25;;;20.34;35.89
32456;BME280;18912;43.270;27.942;2022-12-29T09:12:34;99156.63;;;19.74;36.80
32456;BME280;18912;43.270;27.942;2022-12-29T09:14:59;99149.38;;;19.56;37.25
32456;BME280;18912;43.270;27.942;2022-12-29T09:17:25;99148.16;;;19.87;36.35
32456;BME280;18912;43.270;27.942;2022-12-29T09:20:06;99151.41;;;20.23;36.31
32456;BME280;18912;43.270;27.942;2022-12-29T09:22:31;99144.88;;;20.41;35.62
32456;BME280;18912;43.270;27.942;2022-12-29T09:24:57;99137.69;;;20.12;35.91
32456;BME280;18912;43.270;27.942;2022-12-29T09:27:22;99145.94;;;20.00;36.03
32456;BME280;18912;43.270;27.942;2022-12-29T09:29:48;99135.97;;;19.94;36.29
32456;BME280;18912;43.270;27.942;2022-12-29T09:32:13;99145.13;;;20.39;35.67
32456;BME280;18912;43.270;27.942;2022-12-29T09:34:39;99141.50;;;20.51;35.79
32456;BME280;18912;43.270;27.942;2022-12-29T09:37:04;99140.41;;;20.23;36.21
32456;BME280;18912;43.270;27.942;2022-12-29T09:39:30;99141.38;;;20.74;35.14
32456;BME280;18912;43.270;27.942;2022-12-29T09:42:08;99138.22;;;20.82;34.96
32456;BME280;18912;43.270;27.942;2022-12-29T09:45:11;99147.84;;;19.60;36.77
32456;BME280;18912;43.270;27.942;2022-12-29T09:47:41;99133.47;;;20.77;35.39
32456;BME280;18912;43.270;27.942;2022-12-29T09:55:26;99116.31;;;23.30;31.74
32456;BME280;18912;43.270;27.942;2022-12-29T09:58:03;99118.59;;;23.79;31.31
32456;BME280;18912;43.270;27.942;2022-12-29T10:00:40;99116.38;;;23.35;31.38
32456;BME280;18912;43.270;27.942;2022-12-29T10:03:18;99117.38;;;23.55;30.81
32456;BME280;18912;43.270;27.942;2022-12-29T10:06:06;99108.97;;;24.54;30.18
32456;BME280;18912;43.270;27.942;2022-12-29T10:16:36;99103.25;;;23.15;31.77
32456;BME280;18912;43.270;27.942;2022-12-29T10:24:46;99088.03;;;22.49;32.38
32456;BME280;18912;43.270;27.942;2022-12-29T10:27:14;99092.97;;;23.94;30.81
32456;BME280;18912;43.270;27.942;2022-12-29T10:29:55;99078.44;;;22.83;31.91
32456;BME280;18912;43.270;27.942;2022-12-29T10:34:57;99072.94;;;23.20;31.41
32456;BME280;18912;43.270;27.942;2022-12-29T10:37:41;99075.56;;;23.83;30.91
32456;BME280;18912;43.270;27.942;2022-12-29T10:40:42;99080.34;;;23.14;30.99
32456;BME280;18912;43.270;27.942;2022-12-29T10:43:50;99080.22;;;23.31;31.61
32456;BME280;18912;43.270;27.942;2022-12-29T10:46:19;99073.88;;;22.99;31.18
32456;BME280;18912;43.270;27.942;2022-12-29T10:48:46;99074.06;;;23.19;31.41
32456;BME280;18912;43.270;27.942;2022-12-29T10:51:22;99065.91;;;23.34;31.18
32456;BME280;18912;43.270;27.942;2022-12-29T10:53:51;99062.34;;;22.44;32.06
32456;BME280;18912;43.270;27.942;2022-12-29T10:59:16;99068.22;;;22.79;32.03
32456;BME280;18912;43.270;27.942;2022-12-29T11:01:58;99070.66;;;23.07;31.46
32456;BME280;18912;43.270;27.942;2022-12-29T11:04:28;99068.72;;;22.76;31.92
32456;BME280;18912;43.270;27.942;2022-12-29T11:06:59;99076.94;;;22.66;31.92
32456;BME280;18912;43.270;27.942;2022-12-29T11:09:31;99062.19;;;22.28;32.77
32456;BME280;18912;43.270;27.942;2022-12-29T11:11:57;99067.50;;;23.25;31.31
32456;BME280;18912;43.270;27.942;2022-12-29T11:14:28;99056.88;;;24.05;30.61
32456;BME280;18912;43.270;27.942;2022-12-29T11:16:59;99057.59;;;24.93;29.36
32456;BME280;18912;43.270;27.942;2022-12-29T11:19:27;99060.03;;;24.64;29.45
32456;BME280;18912;43.270;27.942;2022-12-29T11:21:54;99069.16;;;24.60;29.72
32456;BME280;18912;43.270;27.942;2022-12-29T11:24:25;99054.78;;;24.43;29.78
32456;BME280;18912;43.270;27.942;2022-12-29T11:26:52;99060.00;;;24.54;29.69
32456;BME280;18912;43.270;27.942;2022-12-29T11:29:29;99058.28;;;24.08;30.10
32456;BME280;18912;43.270;27.942;2022-12-29T11:32:18;99055.09;;;23.84;30.91
32456;BME280;18912;43.270;27.942;2022-12-29T11:34:44;99048.72;;;24.76;29.13
32456;BME280;18912;43.270;27.942;2022-12-29T11:37:19;99051.44;;;24.46;29.92
32456;BME280;18912;43.270;27.942;2022-12-29T11:39:56;99047.63;;;23.75;30.19
32456;BME280;18912;43.270;27.942;2022-12-29T11:42:29;99041.53;;;25.05;29.50
32456;BME280;18912;43.270;27.942;2022-12-29T11:44:56;99048.19;;;23.77;30.32
32456;BME280;18912;43.270;27.942;2022-12-29T11:47:31;99050.22;;;23.03;31.59
32456;BME280;18912;43.270;27.942;2022-12-29T11:50:04;99052.97;;;22.13;32.88
32456;BME280;18912;43.270;27.942;2022-12-29T11:52:35;99041.13;;;22.39;32.55
32456;BME280;18912;43.270;27.942;2022-12-29T11:55:04;99039.00;;;22.24;32.71
32456;BME280;18912;43.270;27.942;2022-12-29T11:57:32;99032.44;;;21.99;33.72
32456;BME280;18912;43.270;27.942;2022-12-29T12:00:01;99037.84;;;20.96;35.38
32456;BME280;18912;43.270;27.942;2022-12-29T12:02:42;99036.44;;;21.86;34.23
32456;BME280;18912;43.270;27.942;2022-12-29T12:07:55;99037.47;;;21.04;35.64
32456;BME280;18912;43.270;27.942;2022-12-29T12:10:27;99024.78;;;21.03;35.44
32456;BME280;18912;43.270;27.942;2022-12-29T12:13:20;99024.34;;;21.49;35.23
32456;BME280;18912;43.270;27.942;2022-12-29T12:16:02;99017.16;;;20.55;36.82
32456;BME280;18912;43.270;27.942;2022-12-29T12:21:10;99020.06;;;20.32;39.04
32456;BME280;18912;43.270;27.942;2022-12-29T12:28:59;99014.53;;;19.47;40.54
32456;BME280;18912;43.270;27.942;2022-12-29T12:34:22;99015.69;;;19.63;40.15
32456;BME280;18912;43.270;27.942;2022-12-29T12:44:58;99018.50;;;19.05;42.61
32456;BME280;18912;43.270;27.942;2022-12-29T12:50:22;99025.53;;;18.43;43.58
32456;BME280;18912;43.270;27.942;2022-12-29T12:53:59;99014.09;;;18.05;44.59
32456;BME280;18912;43.270;27.942;2022-12-29T13:02:15;99013.22;;;17.45;45.73
32456;BME280;18912;43.270;27.942;2022-12-29T13:04:32;99011.94;;;17.12;46.69
32456;BME280;18912;43.270;27.942;2022-12-29T13:12:49;99013.22;;;17.45;47.03
32456;BME280;18912;43.270;27.942;2022-12-29T13:19:14;99010.38;;;16.61;48.93
32456;BME280;18912;43.270;27.942;2022-12-29T13:27:10;99015.72;;;16.50;50.07
32456;BME280;18912;43.270;27.942;2022-12-29T13:29:50;99022.31;;;16.60;50.36
32456;BME280;18912;43.270;27.942;2022-12-29T13:35:12;99017.13;;;15.97;51.54
32456;BME280;18912;43.270;27.942;2022-12-29T13:37:58;99009.88;;;16.15;52.37
32456;BME280;18912;43.270;27.942;2022-12-29T13:40:29;99012.81;;;16.45;50.95
32456;BME280;18912;43.270;27.942;2022-12-29T13:43:00;99015.09;;;16.41;50.31
32456;BME280;18912;43.270;27.942;2022-12-29T13:45:29;99005.50;;;16.39;49.96
32456;BME280;18912;43.270;27.942;2022-12-29T13:48:07;99020.03;;;15.70;50.94
32456;BME280;18912;43.270;27.942;2022-12-29T13:50:36;99020.03;;;16.02;50.45
32456;BME280;18912;43.270;27.942;2022-12-29T13:56:01;99021.56;;;14.96;54.98
32456;BME280;18912;43.270;27.942;2022-12-29T13:58:48;99023.50;;;15.46;53.85
32456;BME280;18912;43.270;27.942;2022-12-29T14:01:22;99019.47;;;15.55;52.86
32456;BME280;18912;43.270;27.942;2022-12-29T14:03:54;99017.63;;;15.87;52.40
32456;BME280;18912;43.270;27.942;2022-12-29T14:06:25;99021.38;;;15.55;53.66
32456;BME280;18912;43.270;27.942;2022-12-29T14:09:03;99018.34;;;15.19;55.11
32456;BME280;18912;43.270;27.942;2022-12-29T14:11:38;99026.22;;;15.40;54.73
32456;BME280;18912;43.270;27.942;2022-12-29T14:14:22;99015.00;;;15.67;54.30
32456;BME280;18912;43.270;27.942;2022-12-29T14:16:50;99024.19;;;15.29;55.47
32456;BME280;18912;43.270;27.942;2022-12-29T14:19:20;99028.31;;;15.38;54.99
32456;BME280;18912;43.270;27.942;2022-12-29T14:21:59;99022.31;;;15.23;55.16
32456;BME280;18912;43.270;27.942;2022-12-29T14:34:54;99016.16;;;15.47;54.15
32456;BME280;18912;43.270;27.942;2022-12-29T14:42:32;99014.19;;;15.03;53.79
32456;BME280;18912;43.270;27.942;2022-12-29T14:47:48;99020.53;;;14.90;53.51
32456;BME280;18912;43.270;27.942;2022-12-29T14:53:02;99019.69;;;14.70;53.55
32456;BME280;18912;43.270;27.942;2022-12-29T15:00:47;99026.03;;;14.64;53.05
32456;BME280;18912;43.270;27.942;2022-12-29T15:05:55;99027.28;;;14.36;53.43
32456;BME280;18912;43.270;27.942;2022-12-29T15:08:27;99028.69;;;14.25;53.21
32456;BME280;18912;43.270;27.942;2022-12-29T15:11:01;99027.91;;;14.44;52.78
32456;BME280;18912;43.270;27.942;2022-12-29T15:13:36;99030.81;;;14.36;52.85
32456;BME280;18912;43.270;27.942;2022-12-29T15:16:04;99027.66;;;14.26;52.83
32456;BME280;18912;43.270;27.942;2022-12-29T15:18:33;99026.03;;;14.45;52.08
32456;BME280;18912;43.270;27.942;2022-12-29T15:21:01;99024.53;;;14.42;51.71
32456;BME280;18912;43.270;27.942;2022-12-29T15:23:29;99024.31;;;14.44;51.95
32456;BME280;18912;43.270;27.942;2022-12-29T15:28:27;99022.25;;;14.39;52.51
32456;BME280;18912;43.270;27.942;2022-12-29T15:31:03;99019.72;;;14.44;52.78